createdAt,value
2022-08-27T00:02:17.088Z,91.24
2022-08-27T00:05:05.009Z,91.50
2022-08-27T00:07:52.262Z,91.85
2022-08-27T00:10:41.425Z,92.35
2022-08-27T00:13:28.721Z,92.83
2022-08-27T00:16:17.653Z,93.79
2022-08-27T00:19:05.077Z,92.41
2022-08-27T00:21:52.342Z,94.08
2022-08-27T00:24:48.577Z,92.84
2022-08-27T00:27:36.716Z,95.87
2022-08-27T00:30:24.099Z,95.57
2022-08-27T00:33:11.544Z,96.58
2022-08-27T00:35:59.374Z,98.18
2022-08-27T00:38:46.609Z,94.84
2022-08-27T00:41:34.526Z,96.14
2022-08-27T00:44:21.782Z,96.38
2022-08-27T00:47:17.005Z,97.56
2022-08-27T00:50:08.852Z,95.88
2022-08-27T00:53:01.906Z,94.56
2022-08-27T00:55:55.183Z,95.03
2022-08-27T00:58:46.351Z,95.52
2022-08-27T01:01:35.898Z,97.74
2022-08-27T01:04:23.428Z,100.00
2022-08-27T01:07:11.109Z,99.36
2022-08-27T01:10:01.014Z,100.00
2022-08-27T01:12:53.416Z,100.00
2022-08-27T01:15:41.921Z,100.00
2022-08-27T01:18:33.441Z,100.00
2022-08-27T01:21:34.381Z,100.00
2022-08-27T01:24:35.728Z,100.00
2022-08-27T01:27:26.679Z,100.00
2022-08-27T01:30:18.097Z,100.00
2022-08-27T01:33:17.090Z,100.00
2022-08-27T01:36:08.073Z,100.00
2022-08-27T01:38:55.841Z,100.00
2022-08-27T01:41:44.720Z,100.00
2022-08-27T01:44:42.750Z,100.00
2022-08-27T01:47:30.692Z,100.00
2022-08-27T01:50:25.641Z,100.00
2022-08-27T01:53:16.363Z,100.00
2022-08-27T01:56:05.461Z,100.00
2022-08-27T01:58:52.732Z,100.00
2022-08-27T02:01:40.031Z,100.00
2022-08-27T02:04:27.445Z,100.00
2022-08-27T02:07:14.700Z,100.00
2022-08-27T02:10:02.063Z,100.00
2022-08-27T02:12:49.618Z,100.00
2022-08-27T02:15:37.938Z,100.00
2022-08-27T02:18:25.235Z,100.00
2022-08-27T02:21:12.820Z,100.00
2022-08-27T02:24:00.144Z,100.00
2022-08-27T02:26:47.421Z,100.00
2022-08-27T02:29:34.889Z,100.00
2022-08-27T02:32:26.983Z,100.00
2022-08-27T02:35:22.021Z,100.00
2022-08-27T02:38:09.863Z,100.00
2022-08-27T02:40:57.114Z,100.00
2022-08-27T02:43:45.564Z,100.00
2022-08-27T02:46:33.321Z,100.00
2022-08-27T02:49:20.721Z,100.00
2022-08-27T02:52:08.179Z,100.00
2022-08-27T02:54:56.464Z,100.00
2022-08-27T02:57:43.940Z,100.00
2022-08-27T03:00:31.266Z,100.00
2022-08-27T03:03:18.616Z,100.00
2022-08-27T03:06:05.926Z,100.00
2022-08-27T03:08:53.662Z,100.00
2022-08-27T03:11:41.988Z,100.00
2022-08-27T03:14:29.484Z,100.00
2022-08-27T03:17:35.391Z,100.00
2022-08-27T03:20:24.219Z,100.00
2022-08-27T03:23:12.567Z,100.00
2022-08-27T03:26:02.617Z,100.00
2022-08-27T03:28:49.959Z,99.61
2022-08-27T03:31:37.670Z,99.27
2022-08-27T03:34:24.962Z,99.21
2022-08-27T03:37:12.273Z,98.70
2022-08-27T03:39:59.571Z,99.26
2022-08-27T03:42:46.854Z,97.65
2022-08-27T03:46:00.404Z,97.14
2022-08-27T03:48:41.468Z,98.08
2022-08-27T03:51:28.706Z,97.11
2022-08-27T03:54:16.128Z,98.73
2022-08-27T03:57:04.245Z,99.13
2022-08-27T03:59:53.038Z,98.85
2022-08-27T04:02:42.905Z,98.12
2022-08-27T04:05:30.220Z,96.92
2022-08-27T04:08:17.493Z,96.67
2022-08-27T04:11:06.745Z,95.68
2022-08-27T04:13:53.998Z,95.22
2022-08-27T04:16:41.516Z,95.04
2022-08-27T04:19:32.212Z,93.89
2022-08-27T04:22:20.874Z,95.19
2022-08-27T04:25:10.459Z,94.13
2022-08-27T04:27:59.192Z,93.47
2022-08-27T04:30:47.142Z,93.72
2022-08-27T04:33:34.604Z,93.80
2022-08-27T04:36:21.927Z,93.41
2022-08-27T04:39:09.178Z,93.36
2022-08-27T04:41:59.256Z,93.79
2022-08-27T04:44:47.162Z,94.13
2022-08-27T04:47:35.127Z,93.72
2022-08-27T04:50:22.362Z,94.06
2022-08-27T04:53:13.544Z,93.60
2022-08-27T04:56:00.768Z,93.68
2022-08-27T04:58:49.262Z,95.13
2022-08-27T05:01:37.869Z,93.79
2022-08-27T05:04:26.696Z,94.17
2022-08-27T05:07:14.069Z,94.49
2022-08-27T05:10:01.331Z,96.76
2022-08-27T05:12:50.107Z,95.11
2022-08-27T05:15:38.389Z,95.23
2022-08-27T05:18:25.989Z,95.01
2022-08-27T05:21:33.701Z,94.09
2022-08-27T05:24:21.958Z,96.25
2022-08-27T05:27:09.888Z,97.35
2022-08-27T05:30:00.256Z,97.82
2022-08-27T05:32:47.577Z,97.37
2022-08-27T05:35:42.591Z,96.12
2022-08-27T05:38:30.637Z,97.63
2022-08-27T05:41:21.201Z,96.38
2022-08-27T05:44:36.726Z,96.90
2022-08-27T05:47:17.232Z,96.50
2022-08-27T05:50:05.794Z,96.74
2022-08-27T05:52:53.686Z,95.94
2022-08-27T05:55:45.278Z,97.92
2022-08-27T05:58:51.141Z,98.42
2022-08-27T06:01:45.637Z,99.64
2022-08-27T06:04:33.052Z,100.00
2022-08-27T06:07:20.545Z,99.93
2022-08-27T06:10:08.729Z,98.81
2022-08-27T06:12:57.150Z,100.00
2022-08-27T06:15:44.562Z,100.00
2022-08-27T06:18:36.509Z,100.00
2022-08-27T06:21:24.956Z,100.00
2022-08-27T06:24:13.338Z,100.00
2022-08-27T06:27:00.597Z,100.00
2022-08-27T06:29:47.893Z,100.00
2022-08-27T06:32:35.133Z,100.00
2022-08-27T06:35:22.425Z,100.00
2022-08-27T06:38:09.795Z,100.00
2022-08-27T06:40:58.150Z,100.00
2022-08-27T06:43:45.794Z,100.00
2022-08-27T06:46:33.160Z,100.00
2022-08-27T06:49:20.460Z,100.00
2022-08-27T06:52:07.887Z,100.00
2022-08-27T06:54:56.627Z,100.00
2022-08-27T06:57:43.878Z,100.00
2022-08-27T07:00:31.156Z,100.00
2022-08-27T07:03:18.493Z,100.00
2022-08-27T07:06:06.456Z,100.00
2022-08-27T07:08:54.109Z,100.00
2022-08-27T07:11:41.405Z,100.00
2022-08-27T07:14:32.972Z,100.00
2022-08-27T07:17:24.311Z,100.00
2022-08-27T07:20:13.343Z,100.00
2022-08-27T07:23:00.606Z,100.00
2022-08-27T07:25:48.312Z,100.00
2022-08-27T07:28:36.412Z,100.00
2022-08-27T07:31:24.265Z,100.00
2022-08-27T07:34:11.548Z,100.00
2022-08-27T07:36:58.831Z,100.00
2022-08-27T07:39:46.125Z,100.00
2022-08-27T07:42:51.981Z,100.00
2022-08-27T07:45:48.145Z,100.00
2022-08-27T07:48:36.482Z,100.00
2022-08-27T07:51:28.260Z,100.00
2022-08-27T07:54:16.383Z,100.00
2022-08-27T07:57:04.377Z,100.00
2022-08-27T07:59:53.136Z,100.00
2022-08-27T08:02:42.144Z,100.00
2022-08-27T08:05:36.780Z,100.00
2022-08-27T08:08:24.950Z,100.00
2022-08-27T08:11:16.639Z,100.00
2022-08-27T08:14:03.933Z,100.00
2022-08-27T08:19:19.820Z,100.00
2022-08-27T08:22:08.468Z,100.00
2022-08-27T08:24:55.868Z,100.00
2022-08-27T08:27:43.616Z,100.00
2022-08-27T08:30:33.154Z,100.00
2022-08-27T08:33:23.557Z,100.00
2022-08-27T08:36:13.573Z,100.00
2022-08-27T08:39:00.969Z,100.00
2022-08-27T08:41:55.400Z,100.00
2022-08-27T08:44:49.456Z,100.00
2022-08-27T08:47:45.605Z,100.00
2022-08-27T08:50:53.999Z,100.00
2022-08-27T08:53:47.578Z,100.00
2022-08-27T08:57:07.900Z,100.00
2022-08-27T09:00:09.473Z,100.00
2022-08-27T09:02:57.292Z,100.00
2022-08-27T09:05:54.630Z,100.00
2022-08-27T09:08:43.523Z,100.00
2022-08-27T09:11:44.372Z,100.00
2022-08-27T09:14:41.205Z,100.00
2022-08-27T09:17:34.646Z,100.00
2022-08-27T09:20:25.644Z,100.00
2022-08-27T09:23:16.272Z,100.00
2022-08-27T09:26:03.603Z,100.00
2022-08-27T09:29:18.475Z,100.00
2022-08-27T09:32:09.245Z,100.00
2022-08-27T09:35:01.496Z,100.00
2022-08-27T09:37:53.090Z,100.00
2022-08-27T09:40:48.864Z,100.00
2022-08-27T09:43:36.908Z,100.00
2022-08-27T09:46:26.953Z,100.00
2022-08-27T09:49:16.389Z,100.00
2022-08-27T09:52:04.289Z,100.00
2022-08-27T09:54:55.598Z,100.00
2022-08-27T09:57:43.005Z,100.00
2022-08-27T10:00:39.634Z,100.00
2022-08-27T10:03:31.365Z,100.00
2022-08-27T10:06:32.541Z,100.00
2022-08-27T10:09:32.993Z,100.00
2022-08-27T10:12:55.328Z,100.00
2022-08-27T10:15:57.441Z,100.00
2022-08-27T10:19:22.377Z,100.00
2022-08-27T10:23:07.108Z,100.00
2022-08-27T10:26:16.951Z,99.69
2022-08-27T10:29:19.578Z,97.48
2022-08-27T10:32:31.186Z,100.00
2022-08-27T10:35:32.131Z,100.00
2022-08-27T10:38:31.369Z,95.88
2022-08-27T10:41:35.243Z,97.94
2022-08-27T10:45:02.441Z,96.63
2022-08-27T10:48:10.959Z,97.11
2022-08-27T10:50:58.359Z,95.49
2022-08-27T10:53:59.788Z,94.36
2022-08-27T10:57:31.747Z,92.12
2022-08-27T11:00:23.130Z,91.80
2022-08-27T11:03:42.015Z,94.73
2022-08-27T11:06:54.369Z,94.12
2022-08-27T11:10:18.472Z,89.96
2022-08-27T11:13:14.658Z,89.06
2022-08-27T11:16:11.624Z,87.74
2022-08-27T11:19:05.903Z,88.18
2022-08-27T11:22:01.246Z,87.21
2022-08-27T11:25:10.013Z,85.09
2022-08-27T11:27:59.095Z,86.29
2022-08-27T11:31:04.204Z,86.53
2022-08-27T11:34:12.814Z,83.31
2022-08-27T11:37:37.857Z,83.19
2022-08-27T11:40:49.285Z,84.19
2022-08-27T11:43:37.530Z,82.34
2022-08-27T11:46:27.781Z,83.59
2022-08-27T11:49:29.761Z,82.00
2022-08-27T11:52:26.075Z,81.74
2022-08-27T11:55:19.371Z,80.58
2022-08-27T11:58:08.354Z,80.78
2022-08-27T12:00:55.951Z,81.17
2022-08-27T12:03:43.490Z,79.26
2022-08-27T12:06:41.762Z,79.70
2022-08-27T12:09:29.666Z,81.51
2022-08-27T12:12:49.146Z,78.98
2022-08-27T12:15:48.374Z,79.09
2022-08-27T12:18:42.612Z,78.37
2022-08-27T12:21:51.394Z,78.16
2022-08-27T12:24:58.676Z,78.19
2022-08-27T12:27:55.449Z,78.76
2022-08-27T12:30:50.415Z,77.48
2022-08-27T12:33:44.853Z,79.06
2022-08-27T12:36:34.802Z,75.56
2022-08-27T12:39:29.589Z,77.61
2022-08-27T12:42:19.802Z,76.06
2022-08-27T12:45:07.571Z,75.00
2022-08-27T12:47:55.662Z,74.78
2022-08-27T12:50:42.985Z,74.43
2022-08-27T12:53:32.880Z,74.38
2022-08-27T12:56:37.880Z,73.26
2022-08-27T12:59:43.137Z,74.11
2022-08-27T13:03:16.133Z,73.19
2022-08-27T13:06:26.998Z,74.38
2022-08-27T13:09:14.278Z,74.44
2022-08-27T13:12:05.493Z,73.83
2022-08-27T13:14:56.965Z,72.14
2022-08-27T13:17:46.512Z,73.57
2022-08-27T13:20:37.612Z,72.18
2022-08-27T13:23:27.154Z,72.07
2022-08-27T13:26:14.396Z,71.37
2022-08-27T13:29:03.912Z,71.30
2022-08-27T13:31:51.817Z,71.67
2022-08-27T13:34:40.932Z,72.10
2022-08-27T13:37:44.712Z,71.43
2022-08-27T13:40:35.194Z,70.51
2022-08-27T13:43:33.155Z,70.96
2022-08-27T13:46:24.115Z,71.22
2022-08-27T13:49:17.596Z,71.74
2022-08-27T13:52:36.967Z,70.53
2022-08-27T13:55:24.222Z,70.63
2022-08-27T13:58:14.941Z,70.09
2022-08-27T14:01:14.209Z,69.39
2022-08-27T14:04:07.761Z,68.74
2022-08-27T14:06:55.212Z,69.93
2022-08-27T14:09:54.263Z,69.67
2022-08-27T14:12:42.299Z,69.93
2022-08-27T14:15:38.359Z,69.24
2022-08-27T14:18:54.970Z,69.08
2022-08-27T14:21:40.870Z,68.80
2022-08-27T14:24:31.182Z,69.12
2022-08-27T14:27:20.035Z,68.45
2022-08-27T14:30:09.585Z,68.49
2022-08-27T14:33:01.873Z,67.99
2022-08-27T14:35:49.236Z,68.37
2022-08-27T14:38:40.825Z,67.60
2022-08-27T14:41:28.333Z,67.96
2022-08-27T14:44:15.569Z,68.06
2022-08-27T14:47:09.682Z,67.72
2022-08-27T14:49:57.770Z,67.72
2022-08-27T14:52:45.093Z,67.18
2022-08-27T14:55:32.374Z,67.69
2022-08-27T14:58:20.298Z,67.54
2022-08-27T15:01:08.071Z,67.02
2022-08-27T15:03:57.344Z,67.65
2022-08-27T15:06:44.801Z,67.95
2022-08-27T15:09:32.281Z,66.96
2022-08-27T15:12:26.410Z,66.77
2022-08-27T15:15:14.933Z,67.14
2022-08-27T15:18:02.177Z,66.82
2022-08-27T15:20:49.933Z,66.02
2022-08-27T15:23:37.641Z,67.17
2022-08-27T15:26:25.006Z,67.02
2022-08-27T15:29:12.721Z,66.27
2022-08-27T15:32:00.058Z,66.70
2022-08-27T15:34:47.353Z,65.95
2022-08-27T15:37:35.226Z,66.12
2022-08-27T15:40:24.036Z,65.42
2022-08-27T15:43:12.594Z,65.91
2022-08-27T15:45:59.868Z,65.93
2022-08-27T15:48:47.190Z,65.60
2022-08-27T15:51:35.053Z,65.76
2022-08-27T15:54:22.339Z,65.85
2022-08-27T15:57:10.024Z,66.01
2022-08-27T15:59:57.617Z,66.11
2022-08-27T16:02:46.191Z,66.80
2022-08-27T16:05:36.678Z,65.84
2022-08-27T16:08:24.264Z,65.92
2022-08-27T16:11:11.686Z,66.51
2022-08-27T16:13:58.994Z,66.73
2022-08-27T16:16:47.269Z,66.11
2022-08-27T16:19:41.225Z,65.72
2022-08-27T16:22:28.664Z,66.19
2022-08-27T16:25:18.608Z,66.16
2022-08-27T16:28:08.004Z,65.75
2022-08-27T16:30:56.691Z,65.78
2022-08-27T16:33:44.157Z,65.98
2022-08-27T16:36:31.519Z,66.36
2022-08-27T16:39:18.777Z,66.09
2022-08-27T16:42:10.072Z,66.12
2022-08-27T16:44:57.536Z,66.53
2022-08-27T16:48:03.216Z,66.24
2022-08-27T16:50:50.560Z,66.03
2022-08-27T16:53:41.219Z,67.02
2022-08-27T16:56:28.792Z,67.17
2022-08-27T16:59:16.124Z,66.67
2022-08-27T17:02:03.980Z,66.77
2022-08-27T17:05:07.369Z,66.55
2022-08-27T17:07:59.369Z,66.14
2022-08-27T17:10:51.322Z,66.46
2022-08-27T17:13:39.620Z,66.58
2022-08-27T17:16:32.540Z,66.40
2022-08-27T17:19:21.916Z,66.74
2022-08-27T17:22:09.415Z,66.97
2022-08-27T17:24:56.665Z,66.91
2022-08-27T17:27:43.944Z,67.26
2022-08-27T17:30:31.874Z,67.38
2022-08-27T17:33:36.045Z,67.49
2022-08-27T17:36:23.918Z,67.14
2022-08-27T17:39:14.560Z,67.40
2022-08-27T17:42:01.893Z,67.24
2022-08-27T17:44:49.285Z,67.13
2022-08-27T17:47:36.525Z,66.99
2022-08-27T17:50:23.838Z,67.18
2022-08-27T17:53:11.393Z,67.33
2022-08-27T17:55:58.744Z,67.37
2022-08-27T17:58:47.121Z,67.04
2022-08-27T18:01:39.953Z,67.62
2022-08-27T18:04:27.290Z,67.70
2022-08-27T18:07:15.338Z,68.00
2022-08-27T18:10:03.120Z,68.09
2022-08-27T18:12:52.409Z,68.03
2022-08-27T18:15:42.760Z,68.55
2022-08-27T18:18:30.479Z,68.44
2022-08-27T18:21:25.467Z,68.55
2022-08-27T18:24:14.005Z,68.52
2022-08-27T18:27:01.481Z,68.72
2022-08-27T18:29:49.880Z,68.76
2022-08-27T18:32:41.029Z,68.96
2022-08-27T18:35:30.849Z,68.98
2022-08-27T18:38:18.416Z,69.29
2022-08-27T18:41:06.421Z,69.34
2022-08-27T18:43:56.083Z,69.06
2022-08-27T18:46:43.441Z,69.11
2022-08-27T18:49:30.719Z,69.04
2022-08-27T18:52:21.745Z,69.17
2022-08-27T18:55:12.131Z,69.20
2022-08-27T18:57:59.519Z,69.49
2022-08-27T19:00:51.262Z,69.22
2022-08-27T19:03:43.931Z,69.72
2022-08-27T19:06:31.530Z,69.09
2022-08-27T19:09:19.088Z,68.43
2022-08-27T19:12:06.625Z,68.77
2022-08-27T19:14:53.933Z,69.52
2022-08-27T19:17:43.672Z,69.80
2022-08-27T19:20:31.409Z,69.10
2022-08-27T19:23:22.314Z,68.95
2022-08-27T19:26:24.534Z,68.79
2022-08-27T19:29:12.180Z,69.33
2022-08-27T19:31:59.537Z,69.56
2022-08-27T19:34:47.618Z,69.64
2022-08-27T19:37:39.673Z,69.67
2022-08-27T19:40:28.864Z,69.94
2022-08-27T19:43:16.136Z,70.10
2022-08-27T19:46:05.143Z,69.77
2022-08-27T19:48:55.443Z,70.06
2022-08-27T19:51:42.788Z,70.32
2022-08-27T19:54:33.745Z,70.23
2022-08-27T19:57:21.378Z,70.42
2022-08-27T20:00:11.359Z,70.27
2022-08-27T20:02:58.641Z,70.66
2022-08-27T20:05:49.670Z,70.05
2022-08-27T20:08:36.973Z,69.94
2022-08-27T20:11:24.508Z,70.27
2022-08-27T20:14:12.790Z,70.37
2022-08-27T20:17:00.173Z,70.06
2022-08-27T20:19:47.451Z,69.61
2022-08-27T20:22:37.188Z,70.73
2022-08-27T20:25:24.937Z,70.67
2022-08-27T20:28:37.753Z,70.51
2022-08-27T20:31:19.863Z,70.88
2022-08-27T20:34:07.380Z,70.68
2022-08-27T20:36:54.748Z,70.08
2022-08-27T20:39:43.404Z,70.61
2022-08-27T20:42:30.722Z,70.48
2022-08-27T20:45:18.948Z,70.83
2022-08-27T20:48:06.381Z,70.56
2022-08-27T20:50:53.771Z,70.75
2022-08-27T20:53:41.030Z,70.85
2022-08-27T20:56:28.505Z,71.51
2022-08-27T20:59:34.564Z,72.09
2022-08-27T21:02:28.101Z,71.84
2022-08-27T21:05:17.516Z,72.44
2022-08-27T21:08:06.259Z,72.15
2022-08-27T21:10:56.751Z,71.92
2022-08-27T21:13:55.636Z,70.93
2022-08-27T21:16:43.652Z,70.95
2022-08-27T21:19:31.298Z,70.73
2022-08-27T21:22:19.146Z,70.50
2022-08-27T21:25:07.436Z,70.74
2022-08-27T21:27:56.777Z,70.71
2022-08-27T21:30:45.070Z,70.75
2022-08-27T21:33:34.062Z,70.73
2022-08-27T21:36:26.709Z,70.47
2022-08-27T21:39:14.067Z,70.00
2022-08-27T21:42:02.059Z,69.92
2022-08-27T21:44:49.485Z,70.26
2022-08-27T21:47:36.880Z,70.12
2022-08-27T21:50:25.629Z,70.62
2022-08-27T21:53:12.973Z,70.71
2022-08-27T21:56:00.241Z,70.41
2022-08-27T21:58:47.509Z,71.53
2022-08-27T22:01:34.801Z,71.38
2022-08-27T22:04:22.409Z,71.98
2022-08-27T22:07:10.965Z,71.32
2022-08-27T22:09:58.285Z,71.21
2022-08-27T22:12:45.590Z,71.74
2022-08-27T22:15:33.224Z,71.29
2022-08-27T22:18:23.049Z,71.81
2022-08-27T22:21:11.518Z,71.12
2022-08-27T22:23:59.371Z,72.38
2022-08-27T22:26:46.689Z,71.65
2022-08-27T22:29:34.097Z,71.04
2022-08-27T22:32:21.341Z,71.32
2022-08-27T22:35:10.041Z,70.89
2022-08-27T22:37:57.374Z,71.90
2022-08-27T22:40:45.721Z,72.40
2022-08-27T22:43:35.457Z,72.18
2022-08-27T22:46:22.743Z,72.46
2022-08-27T22:49:10.148Z,71.93
2022-08-27T22:51:57.420Z,71.93
2022-08-27T22:54:44.736Z,72.13
2022-08-27T22:57:32.160Z,72.14
2022-08-27T23:00:35.577Z,72.32
2022-08-27T23:03:23.035Z,72.12
2022-08-27T23:06:10.371Z,71.53
2022-08-27T23:08:57.804Z,71.48
2022-08-27T23:11:45.136Z,72.74
2022-08-27T23:14:33.286Z,72.51
2022-08-27T23:17:21.403Z,72.69
2022-08-27T23:20:10.778Z,71.58
2022-08-27T23:22:58.030Z,71.38
2022-08-27T23:26:03.693Z,70.14
2022-08-27T23:28:50.997Z,70.39
2022-08-27T23:31:38.800Z,70.09
2022-08-27T23:34:26.698Z,70.21
2022-08-27T23:37:13.989Z,70.21
2022-08-27T23:40:01.649Z,69.71
2022-08-27T23:42:49.503Z,70.00
2022-08-27T23:45:40.896Z,70.13
2022-08-27T23:48:28.353Z,70.02
2022-08-27T23:51:15.664Z,70.23
2022-08-27T23:54:02.990Z,69.87
2022-08-27T23:56:50.288Z,69.58
2022-08-27T23:59:37.792Z,69.72
